Time;durP1;ratioP1;P1;durP2;ratioP2;P2;SDS_P1;SDS_P2;PMS_P1;PMS_P2;Temp;Humidity;BMP_temperature;BMP_pressure;BME280_temperature;BME280_humidity;BME280_pressure;Samples;Min_cycle;Max_cycle;Signal;HPM_P1;HPM_P2
2022/05/01 00:02:05;;;;;;;3.13;2.23;;;;;;;10.85;56.97;101608.63;5104200;28;20678;-83
2022/05/01 00:04:31;;;;;;;3.03;2.07;;;;;;;10.83;56.96;101602.50;5094104;28;20220;-83
2022/05/01 00:06:58;;;;;;;4.03;3.07;;;;;;;10.81;57.16;101599.91;5092675;28;20230;-82
2022/05/01 00:09:26;;;;;;;4.00;2.13;;;;;;;10.78;57.19;101594.72;5092041;28;20566;-84
2022/05/01 00:11:53;;;;;;;3.30;2.17;;;;;;;10.75;56.96;101594.84;5093049;28;20345;-83
2022/05/01 00:14:19;;;;;;;2.60;2.27;;;;;;;10.75;57.43;101589.53;5112285;28;20238;-83
2022/05/01 00:16:46;;;;;;;3.20;1.93;;;;;;;10.75;57.35;101600.19;5111788;28;20207;-83
2022/05/01 00:19:13;;;;;;;2.33;2.13;;;;;;;10.72;57.20;101595.91;5112571;28;20210;-82
2022/05/01 00:21:39;;;;;;;2.97;2.17;;;;;;;10.72;57.19;101595.03;5100419;28;20196;-82
2022/05/01 00:24:06;;;;;;;4.20;2.03;;;;;;;10.69;57.03;101600.50;5093252;28;20230;-83
2022/05/01 00:26:35;;;;;;;2.93;2.20;;;;;;;10.68;56.81;101591.66;5095653;28;20226;-82
2022/05/01 00:29:02;;;;;;;4.00;2.23;;;;;;;10.67;57.03;101594.38;5096286;28;20208;-82
2022/05/01 00:31:29;;;;;;;3.40;2.17;;;;;;;10.65;56.91;101590.94;5096313;28;20204;-83
2022/05/01 00:36:40;;;;;;;3.67;1.77;;;;;;;10.62;57.01;101591.94;5094005;28;20210;-82
2022/05/01 00:39:08;;;;;;;2.47;2.10;;;;;;;10.62;56.56;101593.75;5101078;28;20204;-83
2022/05/01 00:41:39;;;;;;;2.93;2.00;;;;;;;10.61;56.58;101600.00;5096477;28;20784;-83
2022/05/01 00:44:08;;;;;;;2.87;1.97;;;;;;;10.61;56.95;101594.69;5096300;28;20219;-83
2022/05/01 00:46:36;;;;;;;2.63;1.90;;;;;;;10.61;56.68;101602.66;5103398;28;20250;-83
2022/05/01 00:49:08;;;;;;;2.90;2.23;;;;;;;10.61;57.10;101597.34;5105987;28;20227;-82
2022/05/01 00:51:39;;;;;;;3.87;2.00;;;;;;;10.60;56.92;101595.63;5102123;28;20199;-82
2022/05/01 00:54:07;;;;;;;3.47;1.97;;;;;;;10.59;57.15;101608.06;5095659;28;20247;-82
2022/05/01 00:56:36;;;;;;;3.93;2.00;;;;;;;10.59;57.12;101609.88;5114975;28;20245;-83
2022/05/01 00:59:04;;;;;;;2.80;1.90;;;;;;;10.59;56.87;101607.19;5116045;28;20213;-82
2022/05/01 01:01:31;;;;;;;3.97;2.03;;;;;;;10.57;57.31;101603.78;5112117;28;20207;-82
2022/05/01 01:03:58;;;;;;;3.03;2.10;;;;;;;10.56;56.96;101594.06;5105237;28;20223;-82
2022/05/01 01:06:24;;;;;;;2.63;2.13;;;;;;;10.54;56.75;101590.59;5115771;28;20215;-82
2022/05/01 01:08:51;;;;;;;3.17;2.20;;;;;;;10.51;57.08;101585.41;5115591;28;20223;-83
2022/05/01 01:11:19;;;;;;;2.33;1.93;;;;;;;10.49;56.48;101590.81;5115958;28;20216;-83
2022/05/01 01:13:47;;;;;;;3.17;2.00;;;;;;;10.46;56.79;101585.63;5096430;28;20223;-82
2022/05/01 01:16:15;;;;;;;3.60;1.97;;;;;;;10.44;56.84;101590.16;5095434;28;20212;-83
2022/05/01 01:18:42;;;;;;;4.07;2.20;;;;;;;10.42;57.29;101592.91;5095747;28;20204;-82
2022/05/01 01:21:11;;;;;;;2.70;2.33;;;;;;;10.42;57.48;101595.56;5096150;28;20208;-82
2022/05/01 01:23:38;;;;;;;2.23;2.03;;;;;;;10.43;57.89;101599.09;5095697;28;20232;-82
2022/05/01 01:26:05;;;;;;;2.70;1.90;;;;;;;10.43;57.50;101604.41;5095429;28;20204;-82
2022/05/01 01:28:33;;;;;;;2.83;2.27;;;;;;;10.41;57.52;101608.94;5094828;28;20307;-83
2022/05/01 01:33:45;;;;;;;4.67;2.30;;;;;;;10.38;57.70;101594.00;5094940;28;20227;-83
2022/05/01 01:36:13;;;;;;;3.30;2.67;;;;;;;10.36;57.83;101598.53;5094360;28;20216;-83
2022/05/01 01:38:40;;;;;;;3.67;2.00;;;;;;;10.34;57.81;101597.75;5094096;28;20211;-83
2022/05/01 01:41:12;;;;;;;2.40;2.20;;;;;;;10.33;57.49;101606.66;5094215;28;20232;-83
2022/05/01 01:43:42;;;;;;;3.00;2.17;;;;;;;10.33;57.70;101601.34;5093362;28;20227;-82
2022/05/01 01:46:08;;;;;;;2.80;2.53;;;;;;;10.32;57.55;101607.59;5086622;28;21924;-81
2022/05/01 01:48:35;;;;;;;3.63;2.23;;;;;;;10.31;57.79;101610.31;5078972;28;20227;-81
2022/05/01 01:51:04;;;;;;;3.17;2.33;;;;;;;10.30;57.98;101608.59;5084004;28;20541;-82
2022/05/01 01:53:33;;;;;;;2.57;2.20;;;;;;;10.28;58.01;101606.00;5081852;28;20303;-81
2022/05/01 01:56:00;;;;;;;4.63;2.10;;;;;;;10.25;57.88;101608.81;5088693;28;20204;-82
2022/05/01 01:58:29;;;;;;;3.33;2.80;;;;;;;10.25;57.73;101613.25;5085896;28;20215;-81
2022/05/01 02:00:56;;;;;;;4.20;2.40;;;;;;;10.23;58.30;101610.66;5085562;28;20254;-82
2022/05/01 02:03:23;;;;;;;6.07;2.60;;;;;;;10.23;58.11;101608.00;5085141;28;20215;-82
2022/05/01 02:05:50;;;;;;;3.37;2.40;;;;;;;10.22;58.21;101608.94;5082439;28;20251;-81
2022/05/01 02:08:17;;;;;;;4.17;2.37;;;;;;;10.22;58.05;101605.41;5079783;28;20224;-82
2022/05/01 02:10:46;;;;;;;2.83;2.13;;;;;;;10.21;58.41;101609.03;5091212;28;20204;-81
2022/05/01 02:13:13;;;;;;;4.20;2.43;;;;;;;10.18;57.82;101610.00;5090129;28;20228;-81
2022/05/01 02:15:41;;;;;;;3.77;2.10;;;;;;;10.17;58.25;101597.63;5079793;28;20201;-81
2022/05/01 02:18:08;;;;;;;3.20;2.20;;;;;;;10.17;57.85;101607.41;5087922;28;20204;-82
2022/05/01 02:23:23;;;;;;;3.87;2.60;;;;;;;10.13;57.89;101601.38;5089117;28;20235;-81
2022/05/01 02:25:51;;;;;;;2.70;2.03;;;;;;;10.10;58.02;101599.72;5085566;28;20227;-82
2022/05/01 02:28:18;;;;;;;2.37;2.00;;;;;;;10.10;58.12;101601.50;5086198;28;20223;-81
2022/05/01 02:30:45;;;;;;;3.80;2.70;;;;;;;10.08;58.18;101592.72;5089741;28;20211;-82
2022/05/01 02:33:15;;;;;;;8.63;2.53;;;;;;;10.07;58.11;101597.19;5081827;28;20689;-82
2022/05/01 02:35:41;;;;;;;3.43;2.30;;;;;;;10.06;58.46;101590.13;5084287;28;20205;-81
2022/05/01 02:38:07;;;;;;;3.97;2.33;;;;;;;10.06;58.85;101589.25;5083740;28;20211;-82
2022/05/01 02:40:36;;;;;;;3.20;2.30;;;;;;;10.05;58.92;101592.84;5081056;28;20204;-81
2022/05/01 02:43:05;;;;;;;3.37;2.50;;;;;;;10.05;58.79;101584.88;5082330;28;20231;-82
2022/05/01 02:45:32;;;;;;;3.20;2.60;;;;;;;10.04;59.05;101589.34;5079589;28;20209;-82
2022/05/01 02:47:58;;;;;;;3.17;2.40;;;;;;;10.05;59.01;101583.06;5077456;28;20231;-81
2022/05/01 02:50:25;;;;;;;2.50;2.30;;;;;;;10.04;58.69;101583.16;5079569;28;20679;-82
2022/05/01 02:52:52;;;;;;;3.60;2.53;;;;;;;10.05;58.96;101582.22;5079438;28;20204;-81
2022/05/01 02:55:19;;;;;;;3.83;2.60;;;;;;;10.04;58.96;101586.66;5087728;28;20653;-81
2022/05/01 02:57:46;;;;;;;4.03;2.30;;;;;;;10.02;58.93;101585.91;5092338;28;20630;-81
2022/05/01 03:00:17;;;;;;;3.40;2.73;;;;;;;10.02;59.11;101582.38;5079589;28;20200;-81
2022/05/01 03:02:45;;;;;;;3.10;2.20;;;;;;;10.00;58.97;101579.78;5093280;28;20233;-84
2022/05/01 03:05:12;;;;;;;2.97;2.40;;;;;;;9.99;59.14;101585.19;5097776;28;20220;-84
2022/05/01 03:07:38;;;;;;;2.30;2.10;;;;;;;9.98;59.45;101586.13;5093182;28;20208;-84
2022/05/01 03:10:10;;;;;;;4.73;2.50;;;;;;;9.97;59.39;101584.38;5090854;28;20208;-83
2022/05/01 03:12:37;;;;;;;3.07;2.40;;;;;;;9.96;59.53;101590.63;5091180;28;20219;-84
2022/05/01 03:15:04;;;;;;;3.00;2.17;;;;;;;9.95;59.54;101583.59;5093934;28;20225;-84
2022/05/01 03:22:10;;;;;;;4.33;2.43;;;;;;;9.93;59.72;101585.44;5089791;28;20295;-84
2022/05/01 03:23:02;;;;;;;2.70;2.33;;;;;;;9.90;59.83;101585.59;5089709;28;20251;-84
2022/05/01 03:25:29;;;;;;;2.30;2.10;;;;;;;9.88;60.25;101585.66;5090813;28;20200;-84
2022/05/01 03:27:56;;;;;;;4.47;2.70;;;;;;;9.87;60.40;101577.72;5089828;28;20290;-84
2022/05/01 03:30:24;;;;;;;2.83;2.23;;;;;;;9.88;60.18;101576.81;5089970;28;20769;-84
2022/05/01 03:32:52;;;;;;;4.70;2.80;;;;;;;9.87;60.48;101580.41;5095198;28;20201;-84
2022/05/01 03:35:19;;;;;;;3.77;3.00;;;;;;;9.84;60.65;101581.44;5103067;28;20192;-83
2022/05/01 03:37:45;;;;;;;3.93;2.40;;;;;;;9.83;60.36;101576.16;5102608;28;20272;-83
2022/05/01 03:40:15;;;;;;;3.33;2.70;;;;;;;9.82;60.63;101572.66;5102785;28;20204;-84
2022/05/01 03:42:42;;;;;;;4.17;2.23;;;;;;;9.81;60.58;101576.25;5102577;28;20226;-84
2022/05/01 03:45:09;;;;;;;3.23;2.37;;;;;;;9.81;61.13;101573.59;5103202;28;20208;-83
2022/05/01 03:47:36;;;;;;;4.03;2.90;;;;;;;9.79;60.92;101570.13;5103479;28;21001;-83
2022/05/01 03:50:06;;;;;;;6.13;2.87;;;;;;;9.80;61.04;101571.84;5102795;28;20237;-83
2022/05/01 03:52:33;;;;;;;5.17;3.20;;;;;;;9.79;61.01;101574.56;5102329;28;20215;-83
2022/05/01 03:55:00;;;;;;;4.10;2.90;;;;;;;9.77;61.12;101571.13;5102968;28;20281;-83
2022/05/01 03:57:27;;;;;;;4.50;2.40;;;;;;;9.77;61.17;101581.75;5101508;28;20204;-84
2022/05/01 03:59:53;;;;;;;3.93;3.27;;;;;;;9.74;61.34;101585.41;5103531;28;20674;-83
2022/05/01 04:02:20;;;;;;;4.17;2.60;;;;;;;9.72;61.60;101587.28;5101094;28;20200;-84
2022/05/01 04:04:48;;;;;;;5.50;2.73;;;;;;;9.72;61.52;101590.81;5101599;28;20232;-83
2022/05/01 04:07:16;;;;;;;3.73;2.90;;;;;;;9.69;61.64;101584.75;5101115;28;20204;-83
2022/05/01 04:09:43;;;;;;;5.07;2.70;;;;;;;9.69;62.35;101580.28;5097343;28;20300;-85
2022/05/01 04:12:10;;;;;;;4.87;2.60;;;;;;;9.67;62.28;101584.81;5103976;28;20295;-84
2022/05/01 04:14:36;;;;;;;3.80;2.90;;;;;;;9.68;62.23;101583.88;5102193;28;20223;-84
2022/05/01 04:17:03;;;;;;;3.73;2.90;;;;;;;9.67;62.06;101586.66;5102843;28;20239;-83
2022/05/01 04:19:30;;;;;;;4.57;2.80;;;;;;;9.66;62.75;101591.09;5102837;28;20287;-83
2022/05/01 04:21:57;;;;;;;3.67;2.90;;;;;;;9.68;62.35;101597.19;5103060;28;20205;-83
2022/05/01 04:24:25;;;;;;;3.73;2.67;;;;;;;9.68;63.02;101594.53;5102935;28;20663;-83
2022/05/01 04:26:52;;;;;;;3.93;3.30;;;;;;;9.68;62.59;101591.00;5102200;28;20215;-83
2022/05/01 04:32:04;;;;;;;5.37;3.53;;;;;;;9.68;63.08;101597.19;5102307;28;20222;-83
2022/05/01 04:34:30;;;;;;;3.73;3.30;;;;;;;9.67;63.90;101598.13;5102463;28;20928;-83
2022/05/01 04:36:58;;;;;;;4.10;3.47;;;;;;;9.68;63.96;101598.97;5102881;28;20215;-84
2022/05/01 04:39:26;;;;;;;6.33;3.87;;;;;;;9.66;64.09;101593.75;5102260;28;20204;-83
2022/05/01 04:41:52;;;;;;;4.10;3.27;;;;;;;9.64;64.45;101587.66;5102416;28;20204;-84
2022/05/01 04:44:19;;;;;;;5.50;3.70;;;;;;;9.62;64.92;101591.28;5102233;28;20598;-83
2022/05/01 04:46:49;;;;;;;5.53;4.23;;;;;;;9.61;64.89;101598.41;5101542;28;20204;-83
2022/05/01 04:49:16;;;;;;;7.23;4.47;;;;;;;9.61;65.02;101600.22;5102720;28;20230;-83
2022/05/01 04:51:42;;;;;;;4.90;3.60;;;;;;;9.58;65.63;101595.88;5101788;28;20294;-83
2022/05/01 04:54:09;;;;;;;4.93;3.57;;;;;;;9.57;66.04;101602.13;5120699;28;20230;-84
2022/05/01 04:59:21;;;;;;;4.90;4.13;;;;;;;9.55;66.43;101604.00;5122265;28;20706;-83
2022/05/01 05:01:48;;;;;;;4.27;3.87;;;;;;;9.54;66.44;101612.91;5107492;28;20660;-84
2022/05/01 05:04:14;;;;;;;4.93;4.17;;;;;;;9.51;66.93;101615.69;5106774;28;20277;-83
2022/05/01 05:06:41;;;;;;;5.27;3.90;;;;;;;9.49;66.76;101609.59;5099587;28;20209;-83
2022/05/01 05:11:53;;;;;;;12.07;4.50;;;;;;;9.47;67.30;101606.13;5083299;28;20223;-83
2022/05/01 05:14:20;;;;;;;6.57;4.57;;;;;;;9.47;67.72;101615.91;5081974;28;20223;-84
2022/05/01 05:16:46;;;;;;;6.63;4.67;;;;;;;9.45;68.02;101613.31;5098102;28;20213;-83
2022/05/01 05:19:13;;;;;;;5.77;4.23;;;;;;;9.44;67.94;101618.69;5102951;28;20210;-83
2022/05/01 05:21:40;;;;;;;5.70;4.23;;;;;;;9.44;68.28;101624.00;5122525;28;20293;-83
2022/05/01 05:24:06;;;;;;;5.80;4.33;;;;;;;9.44;68.80;101624.00;5122901;28;20227;-83
2022/05/01 05:26:33;;;;;;;6.97;4.30;;;;;;;9.42;68.52;101623.22;5122201;28;20286;-84
2022/05/01 05:29:04;;;;;;;7.20;4.57;;;;;;;9.40;68.35;101634.78;5121799;28;20314;-83
2022/05/01 05:31:31;;;;;;;5.23;4.40;;;;;;;9.39;68.48;101618.88;5122482;28;20211;-83
2022/05/01 05:33:57;;;;;;;6.43;4.70;;;;;;;9.40;69.02;101631.25;5122955;28;20292;-83
2022/05/01 05:36:56;;;;;;;6.50;4.90;;;;;;;9.40;69.00;101623.28;5113106;28;20200;-84
2022/05/01 05:42:26;;;;;;;5.37;4.43;;;;;;;9.40;69.32;101621.47;5085184;28;20224;-83
2022/05/01 05:44:53;;;;;;;6.60;4.80;;;;;;;9.40;69.61;101620.63;5097386;28;20228;-83
2022/05/01 05:47:20;;;;;;;7.23;4.50;;;;;;;9.41;69.51;101627.66;5101498;28;20200;-84
2022/05/01 05:49:50;;;;;;;5.07;4.53;;;;;;;9.41;69.88;101627.66;5106063;28;20228;-84
2022/05/01 05:52:17;;;;;;;5.13;4.63;;;;;;;9.40;69.29;101625.94;5105104;28;20210;-83
2022/05/01 05:54:44;;;;;;;6.27;4.13;;;;;;;9.40;69.81;101631.25;5096435;28;20226;-83
2022/05/01 05:57:11;;;;;;;4.90;4.03;;;;;;;9.41;69.89;101630.31;5101315;28;20201;-83
2022/05/01 05:59:37;;;;;;;7.53;4.97;;;;;;;9.40;69.74;101628.59;5101919;28;20231;-84
2022/05/01 06:02:05;;;;;;;5.37;4.57;;;;;;;9.42;69.89;101639.16;5096472;28;20264;-84
2022/05/01 06:04:32;;;;;;;6.30;4.77;;;;;;;9.42;69.80;101632.06;5101872;28;20228;-83
2022/05/01 06:06:58;;;;;;;6.27;4.63;;;;;;;9.42;70.13;101634.72;5101783;28;20196;-83
2022/05/01 06:09:25;;;;;;;7.13;4.63;;;;;;;9.46;70.53;101635.44;5104658;28;20235;-84
2022/05/01 06:11:52;;;;;;;6.23;4.70;;;;;;;9.48;70.20;101636.25;5118512;28;20226;-84
2022/05/01 06:14:18;;;;;;;5.70;4.07;;;;;;;9.48;70.35;101642.44;5102292;28;20228;-83
2022/05/01 06:16:45;;;;;;;7.67;4.40;;;;;;;9.51;70.47;101644.06;5101358;28;20319;-83
2022/05/01 06:19:13;;;;;;;6.53;4.77;;;;;;;9.53;70.40;101647.53;5102459;28;20207;-83
2022/05/01 06:21:39;;;;;;;5.63;4.27;;;;;;;9.54;70.32;101643.94;5101856;28;20238;-83
2022/05/01 06:24:07;;;;;;;5.37;4.83;;;;;;;9.54;70.75;101652.78;5101959;28;20230;-83
2022/05/01 06:26:37;;;;;;;5.70;4.47;;;;;;;9.57;70.49;101646.47;5101393;28;20210;-83
2022/05/01 06:29:04;;;;;;;7.00;4.53;;;;;;;9.59;70.66;101650.81;5099996;28;20224;-83
2022/05/01 06:31:30;;;;;;;5.80;4.40;;;;;;;9.60;70.50;101647.22;5096730;28;20291;-83
2022/05/01 06:33:57;;;;;;;5.37;4.10;;;;;;;9.62;70.63;101657.78;5101088;28;20220;-83
2022/05/01 06:36:25;;;;;;;5.47;4.13;;;;;;;9.63;70.84;101656.84;5101106;28;20200;-84
2022/05/01 06:38:52;;;;;;;7.83;4.40;;;;;;;9.63;70.13;101652.41;5102307;28;20207;-83
2022/05/01 06:41:19;;;;;;;6.80;4.60;;;;;;;9.66;71.06;101649.63;5111043;28;20199;-83
2022/05/01 06:43:45;;;;;;;6.40;4.90;;;;;;;9.68;70.19;101649.53;5118687;28;20639;-83
2022/05/01 06:46:13;;;;;;;5.60;3.93;;;;;;;9.69;70.47;101652.13;5103997;28;20212;-83
2022/05/01 06:48:39;;;;;;;6.17;4.73;;;;;;;9.70;70.57;101652.97;5103909;28;20211;-83
2022/05/01 06:51:06;;;;;;;8.27;4.93;;;;;;;9.72;70.96;101649.31;5104566;28;20832;-84
2022/05/01 06:53:34;;;;;;;5.63;4.10;;;;;;;9.74;70.27;101652.78;5103577;28;20664;-83
2022/05/01 06:56:00;;;;;;;6.87;5.17;;;;;;;9.75;70.96;101649.19;5104207;28;20230;-83
2022/05/01 06:58:27;;;;;;;7.17;5.07;;;;;;;9.79;70.38;101647.28;5103844;28;20204;-83
2022/05/01 07:00:54;;;;;;;9.17;4.83;;;;;;;9.82;70.69;101639.16;5095357;28;20231;-83
2022/05/01 07:03:21;;;;;;;7.43;4.37;;;;;;;9.86;71.37;101651.38;5098669;28;20230;-84
2022/05/01 07:05:48;;;;;;;4.83;4.33;;;;;;;9.91;71.26;101649.38;5088631;28;20212;-83
2022/05/01 07:08:15;;;;;;;6.07;4.43;;;;;;;9.94;70.94;101653.69;5101599;28;20253;-85
2022/05/01 07:10:42;;;;;;;7.50;4.40;;;;;;;9.98;71.30;101652.66;5114550;28;20227;-83
2022/05/01 07:13:10;;;;;;;7.43;4.53;;;;;;;9.99;70.97;101652.56;5106023;28;20228;-84
2022/05/01 07:15:37;;;;;;;8.67;5.37;;;;;;;10.00;71.17;101651.66;5096281;28;20212;-83
2022/05/01 07:18:04;;;;;;;5.70;4.37;;;;;;;10.01;70.54;101657.84;5101636;28;20192;-83
2022/05/01 07:20:34;;;;;;;10.47;5.20;;;;;;;10.04;70.86;101661.19;5103787;28;20208;-83
2022/05/01 07:23:01;;;;;;;6.10;5.07;;;;;;;10.06;70.75;101658.47;5104928;28;20208;-83
2022/05/01 07:25:27;;;;;;;8.03;4.70;;;;;;;10.12;71.11;101660.00;5103937;28;20285;-84
2022/05/01 07:27:55;;;;;;;7.70;5.40;;;;;;;10.17;71.03;101658.88;5103035;28;20204;-83
2022/05/01 07:30:22;;;;;;;8.60;4.83;;;;;;;10.22;70.70;101658.66;5101962;28;20224;-83
2022/05/01 07:32:48;;;;;;;10.20;5.33;;;;;;;10.26;71.33;101654.94;5096303;28;20205;-84
2022/05/01 07:35:15;;;;;;;9.73;5.17;;;;;;;10.32;70.96;101649.34;5102689;28;20272;-84
2022/05/01 07:37:41;;;;;;;7.13;5.07;;;;;;;10.36;70.39;101649.13;5097568;28;20222;-84
2022/05/01 07:40:09;;;;;;;9.97;5.23;;;;;;;10.43;70.80;101658.53;5100660;28;20201;-84
2022/05/01 07:42:35;;;;;;;5.67;4.90;;;;;;;10.49;70.25;101653.88;5089815;28;20204;-84
2022/05/01 07:45:04;;;;;;;8.47;5.23;;;;;;;10.51;70.23;101652.88;5095035;28;20239;-84
2022/05/01 07:47:31;;;;;;;6.53;5.23;;;;;;;10.54;70.29;101654.53;5101488;28;20276;-84
2022/05/01 07:49:57;;;;;;;8.30;5.13;;;;;;;10.56;70.17;101652.66;5101971;28;20696;-84
2022/05/01 07:52:25;;;;;;;5.97;5.27;;;;;;;10.57;69.80;101652.56;5088609;28;20203;-84
2022/05/01 07:54:52;;;;;;;12.33;6.70;;;;;;;10.60;69.83;101659.53;5103041;28;20255;-83
2022/05/01 07:57:20;;;;;;;9.23;5.10;;;;;;;10.62;69.64;101655.00;5103525;28;20205;-84
2022/05/01 07:59:47;;;;;;;7.47;5.43;;;;;;;10.62;69.76;101652.34;5103537;28;20264;-84
2022/05/01 08:02:15;;;;;;;9.60;5.83;;;;;;;10.63;69.63;101648.75;5091703;28;20703;-83
2022/05/01 08:04:40;;;;;;;8.23;5.10;;;;;;;10.63;69.45;101654.06;5101729;28;20876;-84
2022/05/01 08:07:08;;;;;;;7.87;5.13;;;;;;;10.65;69.44;101652.22;5101480;28;20232;-83
2022/05/01 08:09:34;;;;;;;7.83;5.67;;;;;;;10.66;69.46;101659.25;5100885;28;20310;-84
2022/05/01 08:12:01;;;;;;;9.50;5.40;;;;;;;10.66;69.62;101643.28;5099598;28;20302;-83
2022/05/01 08:14:28;;;;;;;7.80;5.30;;;;;;;10.69;69.74;101653.78;5101889;28;20322;-84
2022/05/01 08:16:54;;;;;;;7.17;5.60;;;;;;;10.71;69.61;101647.47;5098309;28;20211;-84
2022/05/01 08:22:07;;;;;;;8.93;5.70;;;;;;;10.82;69.61;101654.94;5089223;28;20204;-84
2022/05/01 08:24:34;;;;;;;9.37;5.37;;;;;;;10.85;69.38;101652.13;5093235;28;20220;-84
2022/05/01 08:27:05;;;;;;;7.40;6.03;;;;;;;10.88;69.00;101646.66;5096984;28;20201;-83
2022/05/01 08:29:32;;;;;;;7.90;5.40;;;;;;;10.92;69.30;101655.34;5091697;28;20214;-84
2022/05/01 08:31:59;;;;;;;6.50;5.83;;;;;;;10.98;69.65;101660.38;5095807;28;20204;-84
2022/05/01 08:34:28;;;;;;;7.27;6.13;;;;;;;11.05;69.61;101653.81;5088796;28;20220;-84
2022/05/01 08:36:54;;;;;;;9.37;5.43;;;;;;;11.09;69.17;101666.91;5088256;28;20718;-83
2022/05/01 08:39:21;;;;;;;9.47;6.10;;;;;;;11.16;69.49;101658.59;5084367;28;20204;-83
2022/05/01 08:41:47;;;;;;;8.80;5.80;;;;;;;11.22;69.21;101666.31;5086672;28;20209;-83
2022/05/01 08:44:18;;;;;;;6.20;5.10;;;;;;;11.28;68.96;101658.88;5093608;28;20809;-83
2022/05/01 08:47:23;;;;;;;7.23;4.43;;;;;;;11.38;68.55;101661.91;5096127;28;20229;-83
2022/05/01 08:49:56;;;;;;;8.60;5.33;;;;;;;11.48;68.34;101665.84;5086915;28;20228;-84
2022/05/01 08:52:29;;;;;;;8.60;5.27;;;;;;;11.57;68.11;101659.19;5098351;28;20224;-84
2022/05/01 08:54:58;;;;;;;6.17;5.07;;;;;;;11.66;68.00;101659.56;5098544;28;20229;-84
2022/05/01 08:57:27;;;;;;;11.63;6.07;;;;;;;11.72;67.28;101664.59;5107154;28;20206;-83
2022/05/01 08:59:54;;;;;;;8.33;5.27;;;;;;;11.75;66.58;101664.44;5107203;28;20552;-83
2022/05/01 09:02:21;;;;;;;10.10;5.50;;;;;;;11.79;66.41;101668.72;5106909;28;20274;-83
2022/05/01 09:04:48;;;;;;;9.33;5.37;;;;;;;11.81;65.99;101665.97;5105097;28;20230;-83
2022/05/01 09:07:18;;;;;;;8.40;5.80;;;;;;;11.87;65.93;101668.28;5098174;28;20214;-84
2022/05/01 09:09:45;;;;;;;8.17;5.47;;;;;;;11.93;65.80;101669.78;5102139;28;20227;-83
2022/05/01 09:14:56;;;;;;;9.20;5.30;;;;;;;12.07;65.64;101664.56;5090006;28;20262;-83
2022/05/01 09:17:24;;;;;;;13.07;5.70;;;;;;;12.13;65.34;101661.56;5088288;28;20212;-83
2022/05/01 09:19:53;;;;;;;7.07;5.10;;;;;;;12.20;65.01;101659.41;5087873;28;20209;-83
2022/05/01 09:22:22;;;;;;;12.53;5.73;;;;;;;12.25;64.31;101658.22;5096905;28;20256;-84
2022/05/01 09:24:53;;;;;;;6.97;4.83;;;;;;;12.31;64.33;101655.25;5094132;28;20254;-83
2022/05/01 09:27:32;;;;;;;7.00;4.13;;;;;;;12.41;63.67;101648.44;5087965;28;20250;-84
2022/05/01 09:30:12;;;;;;;7.63;4.97;;;;;;;12.56;63.30;101659.22;5092674;28;20208;-84
2022/05/01 09:32:40;;;;;;;8.77;4.47;;;;;;;12.67;62.97;101656.81;5099567;28;20569;-84
2022/05/01 09:35:08;;;;;;;6.33;4.67;;;;;;;12.77;61.89;101652.66;5104950;28;20212;-85
2022/05/01 09:37:39;;;;;;;6.57;4.70;;;;;;;12.85;61.20;101653.13;5104870;28;20203;-84
2022/05/01 09:40:07;;;;;;;7.90;5.00;;;;;;;12.93;60.63;101656.19;5104751;28;20267;-85
2022/05/01 09:42:35;;;;;;;7.33;4.97;;;;;;;12.99;60.31;101655.00;5105718;28;20596;-84
2022/05/01 09:45:09;;;;;;;6.43;5.10;;;;;;;13.06;60.08;101651.88;5105611;28;20228;-83
2022/05/01 09:47:37;;;;;;;5.97;4.50;;;;;;;13.17;60.06;101662.84;5104134;28;20188;-84
2022/05/01 09:50:05;;;;;;;9.70;4.47;;;;;;;13.27;59.66;101660.47;5104339;28;20225;-84
2022/05/01 09:53:01;;;;;;;5.37;4.57;;;;;;;13.36;59.48;101662.63;5103202;28;20204;-84
2022/05/01 09:55:29;;;;;;;8.83;5.10;;;;;;;13.41;58.74;101654.34;5103527;28;20276;-84
2022/05/01 09:58:06;;;;;;;6.90;4.53;;;;;;;13.49;58.60;101654.72;5101189;28;20218;-83
2022/05/01 10:00:42;;;;;;;3.83;3.50;;;;;;;13.54;57.76;101658.00;5102728;28;20230;-83
2022/05/01 10:03:27;;;;;;;5.43;4.20;;;;;;;13.57;56.98;101657.84;5103901;28;20944;-84
2022/05/01 10:05:56;;;;;;;6.67;3.53;;;;;;;13.62;56.00;101657.53;5101775;28;20454;-83
2022/05/01 10:08:24;;;;;;;4.40;3.53;;;;;;;13.67;55.75;101659.00;5103208;28;20207;-84
2022/05/01 10:10:54;;;;;;;5.73;3.70;;;;;;;13.73;55.28;101655.09;5103650;28;20247;-84
2022/05/01 10:13:24;;;;;;;6.70;4.20;;;;;;;13.77;54.71;101652.13;5104423;28;20227;-83
2022/05/01 10:15:51;;;;;;;5.67;3.73;;;;;;;13.82;53.99;101650.03;5104989;28;20204;-84
2022/05/01 10:18:19;;;;;;;8.03;3.83;;;;;;;13.83;53.82;101642.84;5104376;28;20269;-84
2022/05/01 10:20:46;;;;;;;4.77;3.97;;;;;;;13.82;53.24;101646.47;5104211;28;20578;-84
2022/05/01 10:23:13;;;;;;;4.00;3.47;;;;;;;13.83;53.03;101638.34;5096824;28;20310;-84
2022/05/01 10:25:51;;;;;;;5.30;3.70;;;;;;;13.88;53.24;101646.13;5090232;28;20208;-83
2022/05/01 10:28:42;;;;;;;4.83;4.33;;;;;;;13.95;53.21;101630.53;5097824;28;20627;-84
2022/05/01 10:34:33;;;;;;;6.77;3.77;;;;;;;14.00;53.48;101633.78;5099325;28;20615;-84
2022/05/01 10:37:14;;;;;;;8.03;4.33;;;;;;;14.00;52.80;101625.75;5095273;28;20201;-83
2022/05/01 10:39:41;;;;;;;6.07;4.03;;;;;;;14.05;53.00;101632.53;5094107;28;20232;-84
2022/05/01 10:42:09;;;;;;;4.53;4.03;;;;;;;14.13;52.97;101630.25;5088367;28;20650;-83
2022/05/01 10:44:38;;;;;;;5.30;3.43;;;;;;;14.17;52.98;101625.53;5087946;28;20298;-83
2022/05/01 10:47:06;;;;;;;5.10;3.43;;;;;;;14.16;52.52;101623.81;5086372;28;20205;-83
2022/05/01 10:49:34;;;;;;;4.43;2.97;;;;;;;14.19;52.35;101623.63;5088752;28;20573;-82
2022/05/01 10:52:15;;;;;;;3.97;2.43;;;;;;;14.20;51.49;101614.63;5093130;28;20229;-82
2022/05/01 10:54:47;;;;;;;3.87;2.87;;;;;;;14.21;49.58;101619.03;5093793;28;20255;-83
2022/05/01 10:57:17;;;;;;;4.57;2.70;;;;;;;14.17;48.63;101615.69;5095485;28;20193;-83
2022/05/01 11:00:06;;;;;;;4.27;2.60;;;;;;;14.16;47.94;101613.09;5098436;28;20204;-82
2022/05/01 11:02:38;;;;;;;3.77;2.70;;;;;;;14.16;47.45;101610.44;5091064;28;20313;-83
2022/05/01 11:05:07;;;;;;;3.23;2.60;;;;;;;14.16;46.89;101608.59;5105318;28;20219;-82
2022/05/01 11:07:35;;;;;;;5.23;3.40;;;;;;;14.20;46.80;101596.75;5103141;28;20219;-82
2022/05/01 11:10:04;;;;;;;3.90;2.97;;;;;;;14.24;46.71;101600.09;5099368;28;20236;-82
2022/05/01 11:12:34;;;;;;;3.67;2.63;;;;;;;14.30;46.91;101591.69;5104698;28;20211;-82
2022/05/01 11:15:03;;;;;;;4.57;2.90;;;;;;;14.39;46.97;101588.41;5105326;28;20224;-82
2022/05/01 11:17:55;;;;;;;3.63;2.80;;;;;;;14.52;46.63;101577.75;5100677;28;20207;-82
2022/05/01 11:20:30;;;;;;;4.07;2.37;;;;;;;14.60;45.83;101583.50;5089134;28;20733;-83
2022/05/01 11:22:56;;;;;;;3.40;2.30;;;;;;;14.69;45.41;101580.22;5086743;28;20196;-83
2022/05/01 11:25:31;;;;;;;4.43;2.97;;;;;;;14.80;44.13;101582.19;5091871;28;20283;-83
2022/05/01 11:28:00;;;;;;;3.30;2.30;;;;;;;14.83;43.77;101580.19;5104968;28;20200;-83
2022/05/01 11:30:34;;;;;;;4.30;2.33;;;;;;;14.91;43.64;101574.28;5103243;28;20228;-83
2022/05/01 11:33:02;;;;;;;3.03;2.33;;;;;;;15.01;43.15;101580.78;5098837;28;20204;-83
2022/05/01 11:35:54;;;;;;;4.97;2.47;;;;;;;15.08;42.57;101579.38;5088331;28;20879;-83
2022/05/01 11:38:22;;;;;;;4.10;2.60;;;;;;;15.14;42.53;101581.66;5086496;28;20204;-83
2022/05/01 11:40:57;;;;;;;2.77;2.20;;;;;;;15.23;42.73;101581.03;5095808;28;20227;-82
2022/05/01 11:43:28;;;;;;;5.57;2.47;;;;;;;15.34;43.09;101572.25;5093380;28;20215;-83
2022/05/01 11:45:54;;;;;;;3.70;2.50;;;;;;;15.43;42.50;101579.66;5075935;28;20206;-82
2022/05/01 11:48:22;;;;;;;3.20;2.87;;;;;;;15.47;42.46;101578.50;5084102;28;20228;-82
2022/05/01 11:50:51;;;;;;;4.53;2.67;;;;;;;15.49;42.74;101567.66;5082896;28;20226;-83
2022/05/01 11:53:19;;;;;;;4.40;2.67;;;;;;;15.52;42.67;101573.66;5094727;28;20208;-85
2022/05/01 12:04:27;;;;;;;3.27;2.40;;;;;;;15.83;42.42;101558.13;5095440;28;20763;-83
2022/05/01 12:07:01;;;;;;;4.10;2.93;;;;;;;15.86;42.40;101550.69;5090078;28;20202;-83
2022/05/01 12:09:29;;;;;;;6.23;3.17;;;;;;;15.91;42.04;101553.06;5092642;28;20289;-83
2022/05/01 12:11:56;;;;;;;5.13;2.87;;;;;;;15.98;41.98;101554.34;5097999;28;20221;-84
2022/05/01 12:14:24;;;;;;;3.77;2.93;;;;;;;16.01;41.49;101548.75;5094247;28;20229;-83